createdAt,value
2024-05-09T00:02:25.936Z,98757.34
2024-05-09T00:07:27.980Z,98759.09
2024-05-09T00:12:30.074Z,98759.44
2024-05-09T00:17:32.303Z,98757.56
2024-05-09T00:22:34.492Z,98753.34
2024-05-09T00:27:36.540Z,98759.47
2024-05-09T00:32:38.710Z,98762.31
2024-05-09T00:37:40.812Z,98760.44
2024-05-09T00:42:42.760Z,98761.50
2024-05-09T00:47:46.264Z,98761.38
2024-05-09T00:52:49.328Z,98761.50
2024-05-09T00:57:51.779Z,98760.25
2024-05-09T01:02:53.820Z,98758.00
2024-05-09T01:07:55.981Z,98763.25
2024-05-09T01:12:57.992Z,98756.69
2024-05-09T01:18:04.335Z,98761.97
2024-05-09T01:23:07.280Z,98765.78
2024-05-09T01:28:09.299Z,98773.78
2024-05-09T01:33:12.510Z,98764.03
2024-05-09T01:38:17.602Z,98761.44
2024-05-09T01:43:19.735Z,98756.66
2024-05-09T01:48:21.894Z,98762.81
2024-05-09T01:53:24.023Z,98769.06
2024-05-09T01:58:26.016Z,98769.06
2024-05-09T02:03:28.135Z,98769.19
2024-05-09T02:08:30.279Z,98771.75
2024-05-09T02:13:32.320Z,98768.97
2024-05-09T02:18:34.374Z,98767.03
2024-05-09T02:23:36.449Z,98770.63
2024-05-09T02:28:38.405Z,98761.78
2024-05-09T02:33:40.840Z,98764.56
2024-05-09T02:38:43.125Z,98763.84
2024-05-09T02:43:45.151Z,98758.91
2024-05-09T02:48:47.328Z,98760.22
2024-05-09T02:53:49.372Z,98757.66
2024-05-09T02:58:51.398Z,98753.25
2024-05-09T03:03:53.500Z,98752.72
2024-05-09T03:08:55.641Z,98761.13
2024-05-09T03:13:57.780Z,98761.94
2024-05-09T03:18:59.930Z,98760.13
2024-05-09T03:24:02.022Z,98761.06
2024-05-09T03:29:04.048Z,98758.56
2024-05-09T03:34:06.179Z,98755.59
2024-05-09T03:39:10.058Z,98757.34
2024-05-09T03:44:12.267Z,98752.91
2024-05-09T03:49:14.533Z,98757.75
2024-05-09T03:54:16.573Z,98749.56
2024-05-09T03:59:18.950Z,98744.72
2024-05-09T04:04:20.958Z,98747.28
2024-05-09T04:09:23.063Z,98744.38
2024-05-09T04:14:25.074Z,98749.84
2024-05-09T04:19:27.274Z,98762.81
2024-05-09T04:24:29.613Z,98763.84
2024-05-09T04:29:32.276Z,98766.38
2024-05-09T04:34:36.258Z,98770.91
2024-05-09T04:39:38.226Z,98767.59
2024-05-09T04:44:40.196Z,98771.97
2024-05-09T04:49:42.633Z,98769.25
2024-05-09T04:54:44.992Z,98769.59
2024-05-09T04:59:46.965Z,98765.16
2024-05-09T05:04:50.143Z,98762.78
2024-05-09T05:09:53.224Z,98778.63
2024-05-09T05:14:55.184Z,98775.25
2024-05-09T05:19:57.830Z,98770.94
2024-05-09T05:24:59.867Z,98778.16
2024-05-09T05:30:01.853Z,98782.22
2024-05-09T05:35:04.091Z,98787.22
2024-05-09T05:40:09.427Z,98789.97
2024-05-09T05:45:13.918Z,98789.03
2024-05-09T05:50:24.548Z,98792.84
2024-05-09T05:55:33.938Z,98790.53
2024-05-09T06:00:39.043Z,98790.47
2024-05-09T06:05:46.929Z,98807.47
2024-05-09T06:10:49.171Z,98799.09
2024-05-09T06:15:51.295Z,98809.50
2024-05-09T06:20:53.348Z,98817.06
2024-05-09T06:25:55.440Z,98817.19
2024-05-09T06:30:57.491Z,98814.69
2024-05-09T06:35:59.752Z,98827.31
2024-05-09T06:41:01.823Z,98825.00
2024-05-09T06:46:04.002Z,98819.28
2024-05-09T06:51:06.468Z,98829.41
2024-05-09T06:56:08.527Z,98827.81
2024-05-09T07:01:10.635Z,98828.28
2024-05-09T07:06:12.714Z,98831.28
2024-05-09T07:11:15.120Z,98829.63
2024-05-09T07:16:17.288Z,98823.13
2024-05-09T07:21:19.333Z,98819.22
2024-05-09T07:26:21.505Z,98826.31
2024-05-09T07:31:23.613Z,98828.59
2024-05-09T07:36:25.607Z,98825.63
2024-05-09T07:41:27.661Z,98827.00
2024-05-09T07:47:36.938Z,98814.91
2024-05-09T07:53:20.912Z,98813.91
2024-05-09T07:57:13.917Z,98803.84
2024-05-09T08:02:16.078Z,98804.81
2024-05-09T08:07:19.166Z,98798.19
2024-05-09T08:12:21.238Z,98796.31
2024-05-09T08:17:23.306Z,98785.00
2024-05-09T08:22:25.459Z,98800.06
2024-05-09T08:27:27.688Z,98800.69
2024-05-09T08:32:32.381Z,98800.16
2024-05-09T08:37:38.732Z,98796.66
2024-05-09T08:42:51.217Z,98797.75
2024-05-09T08:47:54.739Z,98793.44
2024-05-09T08:52:56.906Z,98799.44
2024-05-09T08:58:01.118Z,98802.44
2024-05-09T09:03:04.519Z,98790.75
2024-05-09T09:08:08.634Z,98795.63
2024-05-09T09:13:11.359Z,98799.97
2024-05-09T09:18:15.235Z,98793.72
2024-05-09T09:23:17.327Z,98800.88
2024-05-09T09:28:23.202Z,98797.84
2024-05-09T09:33:26.550Z,98791.81
2024-05-09T09:38:31.524Z,98800.41
2024-05-09T09:43:33.868Z,98791.38
2024-05-09T09:48:36.620Z,98790.88
2024-05-09T09:53:38.891Z,98788.31
2024-05-09T09:58:43.851Z,98799.56
2024-05-09T10:03:46.162Z,98782.66
2024-05-09T10:08:49.005Z,98783.28
2024-05-09T10:13:51.860Z,98784.69
2024-05-09T10:18:53.994Z,98785.34
2024-05-09T10:24:03.813Z,98790.19
2024-05-09T10:29:16.809Z,98787.53
2024-05-09T10:34:23.722Z,98786.63
2024-05-09T10:39:26.297Z,98777.53
2024-05-09T10:44:28.280Z,98772.19
2024-05-09T10:49:31.371Z,98774.75
2024-05-09T10:54:37.513Z,98765.91
2024-05-09T10:59:39.880Z,98754.63
2024-05-09T11:04:42.446Z,98762.16
2024-05-09T11:09:44.792Z,98753.84
2024-05-09T11:14:53.895Z,98748.78
2024-05-09T11:19:56.000Z,98739.53
2024-05-09T11:24:58.161Z,98741.00
2024-05-09T11:30:01.368Z,98731.59
2024-05-09T11:35:03.447Z,98737.97
2024-05-09T11:40:11.436Z,98737.09
2024-05-09T11:45:15.648Z,98729.63
2024-05-09T11:50:26.795Z,98727.88
2024-05-09T11:55:36.364Z,98723.53
2024-05-09T12:00:38.558Z,98722.38
2024-05-09T12:05:40.974Z,98717.25
2024-05-09T12:10:43.450Z,98720.84
2024-05-09T12:15:45.653Z,98710.75
2024-05-09T12:20:47.729Z,98717.75
2024-05-09T12:25:50.093Z,98700.19
2024-05-09T12:30:52.102Z,98688.31
2024-05-09T12:35:54.507Z,98699.44
2024-05-09T12:40:56.606Z,98691.69
2024-05-09T12:45:58.794Z,98695.13
2024-05-09T12:51:00.803Z,98686.13
2024-05-09T12:56:04.402Z,98689.78
2024-05-09T13:01:07.509Z,98686.66
2024-05-09T13:06:09.941Z,98656.50
2024-05-09T13:11:12.096Z,98653.22
2024-05-09T13:16:14.197Z,98650.22
2024-05-09T13:21:16.281Z,98632.56
2024-05-09T13:26:18.386Z,98628.66
2024-05-09T13:31:20.713Z,98627.16
2024-05-09T13:36:23.081Z,98621.72
2024-05-09T13:41:25.180Z,98651.16
2024-05-09T13:46:27.378Z,98631.44
2024-05-09T13:51:29.443Z,98631.78
2024-05-09T13:56:31.490Z,98619.59
2024-05-09T14:01:33.482Z,98600.13
2024-05-09T14:06:36.586Z,98614.28
2024-05-09T14:11:38.647Z,98630.22
2024-05-09T14:16:42.222Z,98631.94
2024-05-09T14:21:44.340Z,98623.59
2024-05-09T14:26:46.390Z,98609.63
2024-05-09T14:31:48.452Z,98604.28
2024-05-09T14:36:50.582Z,98596.06
2024-05-09T14:41:52.602Z,98582.22
2024-05-09T14:46:54.691Z,98585.75
2024-05-09T14:51:56.776Z,98568.50
2024-05-09T14:56:58.889Z,98565.69
2024-05-09T15:02:01.027Z,98556.81
2024-05-09T15:07:03.319Z,98574.53
2024-05-09T15:12:05.614Z,98574.63
2024-05-09T15:17:07.582Z,98568.50
2024-05-09T15:22:11.787Z,98567.38
2024-05-09T15:27:14.079Z,98567.44
2024-05-09T15:32:16.161Z,98545.03
2024-05-09T15:37:18.438Z,98547.28
2024-05-09T15:42:20.500Z,98520.81
2024-05-09T15:47:22.554Z,98512.78
2024-05-09T15:52:24.558Z,98508.28
2024-05-09T15:57:26.576Z,98508.66
2024-05-09T16:02:28.670Z,98500.69
2024-05-09T16:07:30.961Z,98495.03
2024-05-09T16:12:32.995Z,98495.91
2024-05-09T16:17:35.519Z,98488.78
2024-05-09T16:22:37.732Z,98484.66
2024-05-09T16:27:39.761Z,98488.09
2024-05-09T16:32:44.124Z,98483.56
2024-05-09T16:37:46.212Z,98484.13
2024-05-09T16:42:48.253Z,98481.75
2024-05-09T16:47:50.494Z,98477.66
2024-05-09T16:52:52.600Z,98482.22
2024-05-09T16:57:55.547Z,98483.88
2024-05-09T17:02:57.702Z,98472.97
2024-05-09T17:07:59.887Z,98466.44
2024-05-09T17:13:03.256Z,98476.13
2024-05-09T17:18:07.623Z,98479.19
2024-05-09T17:23:13.799Z,98474.75
2024-05-09T17:28:16.625Z,98471.66
2024-05-09T17:33:18.819Z,98478.66
2024-05-09T17:38:23.433Z,98472.00
2024-05-09T17:43:25.615Z,98480.66
2024-05-09T17:48:27.870Z,98467.44
2024-05-09T17:53:29.917Z,98476.31
2024-05-09T17:58:32.067Z,98476.13
2024-05-09T18:03:34.453Z,98475.50
2024-05-09T18:08:36.566Z,98471.31
2024-05-09T18:13:38.525Z,98470.66
2024-05-09T18:18:41.138Z,98476.00
2024-05-09T18:23:43.211Z,98474.84
2024-05-09T18:28:47.254Z,98471.47
2024-05-09T18:33:49.453Z,98465.78
2024-05-09T18:38:51.563Z,98471.16
2024-05-09T18:43:54.298Z,98476.81
2024-05-09T18:48:56.370Z,98469.09
2024-05-09T18:53:58.397Z,98474.59
2024-05-09T18:59:00.397Z,98487.19
2024-05-09T19:04:02.671Z,98484.50
2024-05-09T19:09:05.854Z,98498.53
2024-05-09T19:14:07.945Z,98501.81
2024-05-09T19:19:10.164Z,98503.75
2024-05-09T19:24:12.648Z,98505.38
2024-05-09T19:29:14.658Z,98512.50
2024-05-09T19:34:16.842Z,98515.06
2024-05-09T19:39:18.885Z,98510.59
2024-05-09T19:44:20.995Z,98518.34
2024-05-09T19:49:23.165Z,98519.91
2024-05-09T19:54:25.308Z,98518.03
2024-05-09T19:59:27.226Z,98522.84
2024-05-09T20:04:29.321Z,98522.59
2024-05-09T20:09:31.470Z,98521.00
2024-05-09T20:14:33.537Z,98527.56
2024-05-09T20:19:35.679Z,98517.56
2024-05-09T20:24:37.769Z,98526.84
2024-05-09T20:29:39.790Z,98526.53
2024-05-09T20:34:41.738Z,98525.81
2024-05-09T20:39:43.827Z,98525.16
2024-05-09T20:44:45.815Z,98521.28
2024-05-09T20:49:47.891Z,98516.81
2024-05-09T20:54:49.973Z,98514.56
2024-05-09T20:59:51.973Z,98514.66
2024-05-09T21:04:54.075Z,98514.66
2024-05-09T21:09:56.227Z,98519.88
2024-05-09T21:14:58.382Z,98530.69
2024-05-09T21:20:00.340Z,98522.00
2024-05-09T21:25:02.505Z,98528.84
2024-05-09T21:30:07.744Z,98523.97
2024-05-09T21:35:11.868Z,98526.16
2024-05-09T21:40:20.671Z,98523.03
2024-05-09T21:45:26.360Z,98522.78
2024-05-09T21:50:36.519Z,98517.19
2024-05-09T21:55:43.157Z,98517.47
2024-05-09T22:00:46.583Z,98520.38
2024-05-09T22:05:48.892Z,98514.78
2024-05-09T22:10:51.426Z,98516.00
2024-05-09T22:15:53.666Z,98516.84
2024-05-09T22:20:55.675Z,98510.84
2024-05-09T22:25:57.669Z,98510.97
2024-05-09T22:30:59.767Z,98519.69
2024-05-09T22:36:01.750Z,98517.25
2024-05-09T22:41:07.800Z,98515.88
2024-05-09T22:46:09.833Z,98517.78
2024-05-09T22:51:12.841Z,98521.72
2024-05-09T22:56:15.035Z,98509.47
2024-05-09T23:01:17.157Z,98504.72
2024-05-09T23:06:19.372Z,98516.81
2024-05-09T23:11:21.416Z,98513.41
2024-05-09T23:16:23.503Z,98506.56
2024-05-09T23:21:25.609Z,98501.94
2024-05-09T23:26:27.601Z,98499.75
2024-05-09T23:31:29.753Z,98502.34
2024-05-09T23:36:31.881Z,98495.28
2024-05-09T23:41:33.968Z,98497.16
2024-05-09T23:46:36.146Z,98497.84
2024-05-09T23:51:38.267Z,98498.09
2024-05-09T23:56:40.306Z,98493.47
